06MA weather

The Barn Heliport
Pepperell, Massachusetts, United States

Public forecast

Using degrees Fahrenheit for public forecast. Weather courtesy of forecast.io.

METAR (pilot weather report)

Closest report is Boire Field, 6.9 nm (12.7 km) NE. Retrieved 2019/07/18 23:37 UTC (0 seconds ago):

KASH 182337Z 10005KT 10SM OVC028 22/13 A2997 RMK AO2

TAF (pilot weather forecast)

Closest forecast is Manchester-Boston Regional Airport, 16.4 nm (30.4 km) NNE. Retrieved 2019/07/18 18:36 UTC (5 hours ago):

TAF KMHT 181733Z 1818/1918 11008KT P6SM FEW035 SCT060 TEMPO 1818/1822 BKN035 FM182200 11008KT P6SM BKN035 FM190500 00000KT P6SM OVC030 FM191500 23006KT P6SM SCT040